sensor_id;sensor_type;location;lat;lon;timestamp;temperature;humidity
2651;DHT22;1335;48.180;16.342;2022-10-16T00:01:38;12.80;99.90
2651;DHT22;1335;48.180;16.342;2022-10-16T00:04:06;12.60;99.90
2651;DHT22;1335;48.180;16.342;2022-10-16T00:06:33;13.00;99.90
2651;DHT22;1335;48.180;16.342;2022-10-16T00:09:01;13.20;99.90
2651;DHT22;1335;48.180;16.342;2022-10-16T00:11:30;12.50;99.90
2651;DHT22;1335;48.180;16.342;2022-10-16T00:14:05;13.00;99.90
2651;DHT22;1335;48.180;16.342;2022-10-16T00:16:34;13.10;99.90
2651;DHT22;1335;48.180;16.342;2022-10-16T00:19:04;12.40;99.90
2651;DHT22;1335;48.180;16.342;2022-10-16T00:21:33;12.70;99.90
2651;DHT22;1335;48.180;16.342;2022-10-16T00:24:02;12.90;99.90
2651;DHT22;1335;48.180;16.342;2022-10-16T00:26:35;12.50;99.90
2651;DHT22;1335;48.180;16.342;2022-10-16T00:29:03;12.80;99.90
2651;DHT22;1335;48.180;16.342;2022-10-16T00:31:32;12.50;99.90
2651;DHT22;1335;48.180;16.342;2022-10-16T00:33:59;12.90;99.90
2651;DHT22;1335;48.180;16.342;2022-10-16T00:36:29;12.30;99.90
2651;DHT22;1335;48.180;16.342;2022-10-16T00:38:58;12.60;99.90
2651;DHT22;1335;48.180;16.342;2022-10-16T00:41:28;12.90;99.90
2651;DHT22;1335;48.180;16.342;2022-10-16T00:43:57;12.30;99.90
2651;DHT22;1335;48.180;16.342;2022-10-16T00:46:27;12.60;99.90
2651;DHT22;1335;48.180;16.342;2022-10-16T00:48:59;12.50;99.90
2651;DHT22;1335;48.180;16.342;2022-10-16T00:51:34;12.20;99.90
2651;DHT22;1335;48.180;16.342;2022-10-16T00:54:03;12.30;99.90
2651;DHT22;1335;48.180;16.342;2022-10-16T00:56:32;12.10;99.90
2651;DHT22;1335;48.180;16.342;2022-10-16T00:59:02;12.20;99.90
2651;DHT22;1335;48.180;16.342;2022-10-16T01:01:30;12.20;99.90
2651;DHT22;1335;48.180;16.342;2022-10-16T01:03:58;12.50;99.90
2651;DHT22;1335;48.180;16.342;2022-10-16T01:06:35;11.90;99.90
2651;DHT22;1335;48.180;16.342;2022-10-16T01:09:11;12.20;99.90
2651;DHT22;1335;48.180;16.342;2022-10-16T01:11:44;12.10;99.90
2651;DHT22;1335;48.180;16.342;2022-10-16T01:14:20;12.30;99.90
2651;DHT22;1335;48.180;16.342;2022-10-16T01:16:53;12.20;99.90
2651;DHT22;1335;48.180;16.342;2022-10-16T01:19:33;12.20;99.90
2651;DHT22;1335;48.180;16.342;2022-10-16T01:22:06;12.30;99.90
2651;DHT22;1335;48.180;16.342;2022-10-16T01:24:39;12.00;99.90
2651;DHT22;1335;48.180;16.342;2022-10-16T01:27:10;12.10;99.90
2651;DHT22;1335;48.180;16.342;2022-10-16T01:29:46;12.00;99.90
2651;DHT22;1335;48.180;16.342;2022-10-16T01:32:20;12.30;99.90
2651;DHT22;1335;48.180;16.342;2022-10-16T01:34:52;12.30;99.90
2651;DHT22;1335;48.180;16.342;2022-10-16T01:37:26;12.10;99.90
2651;DHT22;1335;48.180;16.342;2022-10-16T01:39:59;12.00;99.90
2651;DHT22;1335;48.180;16.342;2022-10-16T01:42:33;12.50;99.90
2651;DHT22;1335;48.180;16.342;2022-10-16T01:45:02;12.20;99.90
2651;DHT22;1335;48.180;16.342;2022-10-16T01:47:32;12.00;99.90
2651;DHT22;1335;48.180;16.342;2022-10-16T01:50:02;12.30;99.90
2651;DHT22;1335;48.180;16.342;2022-10-16T01:52:33;12.30;99.90
2651;DHT22;1335;48.180;16.342;2022-10-16T01:55:02;12.20;99.90
2651;DHT22;1335;48.180;16.342;2022-10-16T01:57:32;12.80;99.90
2651;DHT22;1335;48.180;16.342;2022-10-16T02:00:05;11.70;99.90
2651;DHT22;1335;48.180;16.342;2022-10-16T02:02:33;12.00;99.90
2651;DHT22;1335;48.180;16.342;2022-10-16T02:05:05;12.10;99.90
2651;DHT22;1335;48.180;16.342;2022-10-16T02:07:35;12.20;99.90
2651;DHT22;1335;48.180;16.342;2022-10-16T02:10:03;11.80;99.90
2651;DHT22;1335;48.180;16.342;2022-10-16T02:12:34;12.30;99.90
2651;DHT22;1335;48.180;16.342;2022-10-16T02:15:02;12.30;99.90
2651;DHT22;1335;48.180;16.342;2022-10-16T02:17:29;12.30;99.90
2651;DHT22;1335;48.180;16.342;2022-10-16T02:19:57;11.60;99.90
2651;DHT22;1335;48.180;16.342;2022-10-16T02:22:28;11.90;99.90
2651;DHT22;1335;48.180;16.342;2022-10-16T02:24:58;12.50;99.90
2651;DHT22;1335;48.180;16.342;2022-10-16T02:27:29;12.40;99.90
2651;DHT22;1335;48.180;16.342;2022-10-16T02:30:05;11.70;99.90
2651;DHT22;1335;48.180;16.342;2022-10-16T02:32:36;11.90;99.90
2651;DHT22;1335;48.180;16.342;2022-10-16T02:35:04;12.20;99.90
2651;DHT22;1335;48.180;16.342;2022-10-16T02:37:32;12.00;99.90
2651;DHT22;1335;48.180;16.342;2022-10-16T02:39:59;12.40;99.90
2651;DHT22;1335;48.180;16.342;2022-10-16T02:42:29;11.70;99.90
2651;DHT22;1335;48.180;16.342;2022-10-16T02:44:56;11.60;99.90
2651;DHT22;1335;48.180;16.342;2022-10-16T02:47:25;11.80;99.90
2651;DHT22;1335;48.180;16.342;2022-10-16T02:49:52;12.40;99.90
2651;DHT22;1335;48.180;16.342;2022-10-16T02:52:19;12.00;99.90
2651;DHT22;1335;48.180;16.342;2022-10-16T02:54:46;12.30;99.90
2651;DHT22;1335;48.180;16.342;2022-10-16T02:57:13;11.80;99.90
2651;DHT22;1335;48.180;16.342;2022-10-16T02:59:40;12.20;99.90
2651;DHT22;1335;48.180;16.342;2022-10-16T03:02:07;12.30;99.90
2651;DHT22;1335;48.180;16.342;2022-10-16T03:04:36;12.40;99.90
2651;DHT22;1335;48.180;16.342;2022-10-16T03:07:03;11.80;99.90
2651;DHT22;1335;48.180;16.342;2022-10-16T03:09:30;12.00;99.90
2651;DHT22;1335;48.180;16.342;2022-10-16T03:11:57;12.40;99.90
2651;DHT22;1335;48.180;16.342;2022-10-16T03:14:24;11.90;99.90
2651;DHT22;1335;48.180;16.342;2022-10-16T03:16:51;12.30;99.90
2651;DHT22;1335;48.180;16.342;2022-10-16T03:19:19;12.00;99.90
2651;DHT22;1335;48.180;16.342;2022-10-16T03:21:47;12.10;99.90
2651;DHT22;1335;48.180;16.342;2022-10-16T03:24:15;12.00;99.90
2651;DHT22;1335;48.180;16.342;2022-10-16T03:26:42;12.00;99.90
2651;DHT22;1335;48.180;16.342;2022-10-16T03:29:09;11.90;99.90
2651;DHT22;1335;48.180;16.342;2022-10-16T03:31:36;12.10;99.90
2651;DHT22;1335;48.180;16.342;2022-10-16T03:34:03;12.40;99.90
2651;DHT22;1335;48.180;16.342;2022-10-16T03:36:30;12.10;99.90
2651;DHT22;1335;48.180;16.342;2022-10-16T03:38:59;12.20;99.90
2651;DHT22;1335;48.180;16.342;2022-10-16T03:41:26;11.90;99.90
2651;DHT22;1335;48.180;16.342;2022-10-16T03:43:53;11.40;99.90
2651;DHT22;1335;48.180;16.342;2022-10-16T03:46:20;11.60;99.90
2651;DHT22;1335;48.180;16.342;2022-10-16T03:48:48;11.00;99.90
2651;DHT22;1335;48.180;16.342;2022-10-16T03:51:15;11.60;99.90
2651;DHT22;1335;48.180;16.342;2022-10-16T03:53:42;11.70;99.90
2651;DHT22;1335;48.180;16.342;2022-10-16T03:56:11;11.50;99.90
2651;DHT22;1335;48.180;16.342;2022-10-16T03:58:38;10.60;99.90
2651;DHT22;1335;48.180;16.342;2022-10-16T04:01:05;11.70;99.90
2651;DHT22;1335;48.180;16.342;2022-10-16T04:03:33;12.10;99.90
2651;DHT22;1335;48.180;16.342;2022-10-16T04:06:00;11.20;99.90
2651;DHT22;1335;48.180;16.342;2022-10-16T04:08:27;11.70;99.90
2651;DHT22;1335;48.180;16.342;2022-10-16T04:10:54;11.70;99.90
2651;DHT22;1335;48.180;16.342;2022-10-16T04:13:23;11.20;99.90
2651;DHT22;1335;48.180;16.342;2022-10-16T04:15:50;11.50;99.90
2651;DHT22;1335;48.180;16.342;2022-10-16T04:18:17;11.50;99.90
2651;DHT22;1335;48.180;16.342;2022-10-16T04:20:44;11.80;99.90
2651;DHT22;1335;48.180;16.342;2022-10-16T04:23:11;11.20;99.90
2651;DHT22;1335;48.180;16.342;2022-10-16T04:25:38;11.50;99.90
2651;DHT22;1335;48.180;16.342;2022-10-16T04:28:05;11.50;99.90
2651;DHT22;1335;48.180;16.342;2022-10-16T04:30:34;11.90;99.90
2651;DHT22;1335;48.180;16.342;2022-10-16T04:33:01;11.20;99.90
2651;DHT22;1335;48.180;16.342;2022-10-16T04:35:28;10.90;99.90
2651;DHT22;1335;48.180;16.342;2022-10-16T04:37:57;10.90;99.90
2651;DHT22;1335;48.180;16.342;2022-10-16T04:40:24;11.30;99.90
2651;DHT22;1335;48.180;16.342;2022-10-16T04:42:52;11.50;99.90
2651;DHT22;1335;48.180;16.342;2022-10-16T04:45:19;11.20;99.90
2651;DHT22;1335;48.180;16.342;2022-10-16T04:47:47;11.30;99.90
2651;DHT22;1335;48.180;16.342;2022-10-16T04:50:14;11.60;99.90
2651;DHT22;1335;48.180;16.342;2022-10-16T04:52:42;11.40;99.90
2651;DHT22;1335;48.180;16.342;2022-10-16T04:55:09;11.20;99.90
2651;DHT22;1335;48.180;16.342;2022-10-16T04:57:36;11.00;99.90
2651;DHT22;1335;48.180;16.342;2022-10-16T05:00:03;11.10;99.90
2651;DHT22;1335;48.180;16.342;2022-10-16T05:02:31;11.20;99.90
2651;DHT22;1335;48.180;16.342;2022-10-16T05:04:59;10.70;99.90
2651;DHT22;1335;48.180;16.342;2022-10-16T05:07:26;11.20;99.90
2651;DHT22;1335;48.180;16.342;2022-10-16T05:09:53;11.90;99.90
2651;DHT22;1335;48.180;16.342;2022-10-16T05:12:21;11.70;99.90
2651;DHT22;1335;48.180;16.342;2022-10-16T05:14:48;11.10;99.90
2651;DHT22;1335;48.180;16.342;2022-10-16T05:17:15;11.50;99.90
2651;DHT22;1335;48.180;16.342;2022-10-16T05:19:42;11.30;99.90
2651;DHT22;1335;48.180;16.342;2022-10-16T05:22:10;11.50;99.90
2651;DHT22;1335;48.180;16.342;2022-10-16T05:24:37;11.70;99.90
2651;DHT22;1335;48.180;16.342;2022-10-16T05:27:04;11.00;99.90
2651;DHT22;1335;48.180;16.342;2022-10-16T05:29:31;11.20;99.90
2651;DHT22;1335;48.180;16.342;2022-10-16T05:31:59;11.50;99.90
2651;DHT22;1335;48.180;16.342;2022-10-16T05:34:26;10.80;99.90
2651;DHT22;1335;48.180;16.342;2022-10-16T05:36:53;11.20;99.90
2651;DHT22;1335;48.180;16.342;2022-10-16T05:39:21;11.80;99.90
2651;DHT22;1335;48.180;16.342;2022-10-16T05:41:49;10.90;99.90
2651;DHT22;1335;48.180;16.342;2022-10-16T05:44:17;11.60;99.90
2651;DHT22;1335;48.180;16.342;2022-10-16T05:46:46;10.90;99.90
2651;DHT22;1335;48.180;16.342;2022-10-16T05:49:13;11.70;99.90
2651;DHT22;1335;48.180;16.342;2022-10-16T05:51:40;11.00;99.90
2651;DHT22;1335;48.180;16.342;2022-10-16T05:54:08;11.00;99.90
2651;DHT22;1335;48.180;16.342;2022-10-16T05:56:36;11.50;99.90
2651;DHT22;1335;48.180;16.342;2022-10-16T05:59:04;11.50;99.90
2651;DHT22;1335;48.180;16.342;2022-10-16T06:01:31;10.70;99.90
2651;DHT22;1335;48.180;16.342;2022-10-16T06:03:59;11.10;99.90
2651;DHT22;1335;48.180;16.342;2022-10-16T06:06:27;11.40;99.90
2651;DHT22;1335;48.180;16.342;2022-10-16T06:08:56;11.10;99.90
2651;DHT22;1335;48.180;16.342;2022-10-16T06:11:26;12.00;99.90
2651;DHT22;1335;48.180;16.342;2022-10-16T06:13:56;11.90;99.90
2651;DHT22;1335;48.180;16.342;2022-10-16T06:16:24;12.60;99.90
2651;DHT22;1335;48.180;16.342;2022-10-16T06:18:52;12.20;99.90
2651;DHT22;1335;48.180;16.342;2022-10-16T06:21:21;12.30;99.90
2651;DHT22;1335;48.180;16.342;2022-10-16T06:23:50;12.30;99.90
2651;DHT22;1335;48.180;16.342;2022-10-16T06:26:18;12.50;99.90
2651;DHT22;1335;48.180;16.342;2022-10-16T06:28:46;12.10;99.90
2651;DHT22;1335;48.180;16.342;2022-10-16T06:31:16;12.70;99.90
2651;DHT22;1335;48.180;16.342;2022-10-16T06:33:43;12.80;99.90
2651;DHT22;1335;48.180;16.342;2022-10-16T06:36:16;12.40;99.90
2651;DHT22;1335;48.180;16.342;2022-10-16T06:38:44;12.00;99.90
2651;DHT22;1335;48.180;16.342;2022-10-16T06:41:12;11.90;99.90
2651;DHT22;1335;48.180;16.342;2022-10-16T06:43:40;11.40;99.90
2651;DHT22;1335;48.180;16.342;2022-10-16T06:46:10;12.10;99.90
2651;DHT22;1335;48.180;16.342;2022-10-16T06:48:39;12.00;99.90
2651;DHT22;1335;48.180;16.342;2022-10-16T06:51:09;12.30;99.90
2651;DHT22;1335;48.180;16.342;2022-10-16T06:53:39;11.80;99.90
2651;DHT22;1335;48.180;16.342;2022-10-16T06:56:07;11.70;99.90
2651;DHT22;1335;48.180;16.342;2022-10-16T06:58:34;11.80;99.90
2651;DHT22;1335;48.180;16.342;2022-10-16T07:01:03;12.10;99.90
2651;DHT22;1335;48.180;16.342;2022-10-16T07:03:32;11.40;99.90
2651;DHT22;1335;48.180;16.342;2022-10-16T07:06:05;11.90;99.90
2651;DHT22;1335;48.180;16.342;2022-10-16T07:08:34;11.60;99.90
2651;DHT22;1335;48.180;16.342;2022-10-16T07:11:02;11.70;99.90
2651;DHT22;1335;48.180;16.342;2022-10-16T07:13:30;11.30;99.90
2651;DHT22;1335;48.180;16.342;2022-10-16T07:15:57;11.90;99.90
2651;DHT22;1335;48.180;16.342;2022-10-16T07:18:26;12.20;99.90
2651;DHT22;1335;48.180;16.342;2022-10-16T07:21:13;12.20;99.90
2651;DHT22;1335;48.180;16.342;2022-10-16T07:23:43;11.90;99.90
2651;DHT22;1335;48.180;16.342;2022-10-16T07:26:13;12.00;99.90
2651;DHT22;1335;48.180;16.342;2022-10-16T07:28:56;12.30;99.90
2651;DHT22;1335;48.180;16.342;2022-10-16T07:31:43;12.20;99.90
2651;DHT22;1335;48.180;16.342;2022-10-16T07:34:14;11.70;99.90
2651;DHT22;1335;48.180;16.342;2022-10-16T07:36:58;11.90;99.90
2651;DHT22;1335;48.180;16.342;2022-10-16T07:39:28;12.50;99.90
2651;DHT22;1335;48.180;16.342;2022-10-16T07:41:55;12.00;99.90
2651;DHT22;1335;48.180;16.342;2022-10-16T07:44:45;12.40;99.90
2651;DHT22;1335;48.180;16.342;2022-10-16T07:47:27;11.30;99.90
2651;DHT22;1335;48.180;16.342;2022-10-16T07:49:54;12.20;99.90
2651;DHT22;1335;48.180;16.342;2022-10-16T07:52:23;12.00;99.90
2651;DHT22;1335;48.180;16.342;2022-10-16T07:54:51;12.10;99.90
2651;DHT22;1335;48.180;16.342;2022-10-16T07:57:20;12.20;99.90
2651;DHT22;1335;48.180;16.342;2022-10-16T07:59:47;11.60;99.90
2651;DHT22;1335;48.180;16.342;2022-10-16T08:02:14;12.20;99.90
2651;DHT22;1335;48.180;16.342;2022-10-16T08:04:41;11.90;99.90
2651;DHT22;1335;48.180;16.342;2022-10-16T08:07:08;12.20;99.90
2651;DHT22;1335;48.180;16.342;2022-10-16T08:09:37;12.20;99.90
2651;DHT22;1335;48.180;16.342;2022-10-16T08:12:05;13.10;99.90
2651;DHT22;1335;48.180;16.342;2022-10-16T08:14:33;12.70;99.90
2651;DHT22;1335;48.180;16.342;2022-10-16T08:17:00;12.20;99.90
2651;DHT22;1335;48.180;16.342;2022-10-16T08:19:30;12.50;99.90
2651;DHT22;1335;48.180;16.342;2022-10-16T08:22:00;13.00;99.90
2651;DHT22;1335;48.180;16.342;2022-10-16T08:24:28;12.50;99.90
2651;DHT22;1335;48.180;16.342;2022-10-16T08:27:02;12.10;99.90
2651;DHT22;1335;48.180;16.342;2022-10-16T08:29:29;12.50;99.90
2651;DHT22;1335;48.180;16.342;2022-10-16T08:31:57;12.60;99.90
2651;DHT22;1335;48.180;16.342;2022-10-16T08:34:25;12.70;99.90
2651;DHT22;1335;48.180;16.342;2022-10-16T08:36:53;12.30;99.90
2651;DHT22;1335;48.180;16.342;2022-10-16T08:39:20;12.40;99.90
2651;DHT22;1335;48.180;16.342;2022-10-16T08:42:10;12.30;99.90
2651;DHT22;1335;48.180;16.342;2022-10-16T08:45:07;12.40;99.90
2651;DHT22;1335;48.180;16.342;2022-10-16T08:47:43;13.10;99.90
2651;DHT22;1335;48.180;16.342;2022-10-16T08:50:21;13.50;99.90
2651;DHT22;1335;48.180;16.342;2022-10-16T08:53:04;13.40;99.90
2651;DHT22;1335;48.180;16.342;2022-10-16T08:55:37;13.00;99.90
2651;DHT22;1335;48.180;16.342;2022-10-16T08:58:13;13.70;99.90
2651;DHT22;1335;48.180;16.342;2022-10-16T09:00:42;13.40;99.90
2651;DHT22;1335;48.180;16.342;2022-10-16T09:03:30;13.50;99.90
2651;DHT22;1335;48.180;16.342;2022-10-16T09:06:16;13.60;99.90
2651;DHT22;1335;48.180;16.342;2022-10-16T09:08:57;13.80;99.90
2651;DHT22;1335;48.180;16.342;2022-10-16T09:11:38;13.90;99.90
2651;DHT22;1335;48.180;16.342;2022-10-16T09:14:22;13.70;99.90
2651;DHT22;1335;48.180;16.342;2022-10-16T09:17:11;13.40;99.90
2651;DHT22;1335;48.180;16.342;2022-10-16T09:19:44;13.10;99.90
2651;DHT22;1335;48.180;16.342;2022-10-16T09:22:15;13.40;99.90
2651;DHT22;1335;48.180;16.342;2022-10-16T09:24:43;13.20;99.90
2651;DHT22;1335;48.180;16.342;2022-10-16T09:27:12;13.30;99.90
2651;DHT22;1335;48.180;16.342;2022-10-16T09:29:43;14.20;99.90
2651;DHT22;1335;48.180;16.342;2022-10-16T09:32:13;13.40;99.90
2651;DHT22;1335;48.180;16.342;2022-10-16T09:34:45;13.20;99.90
2651;DHT22;1335;48.180;16.342;2022-10-16T09:37:16;13.50;99.90
2651;DHT22;1335;48.180;16.342;2022-10-16T09:39:45;13.50;99.90
2651;DHT22;1335;48.180;16.342;2022-10-16T09:42:16;13.30;99.90
2651;DHT22;1335;48.180;16.342;2022-10-16T09:44:47;12.80;99.90
2651;DHT22;1335;48.180;16.342;2022-10-16T09:47:17;13.00;99.90
2651;DHT22;1335;48.180;16.342;2022-10-16T09:49:53;13.10;99.90
2651;DHT22;1335;48.180;16.342;2022-10-16T09:52:21;13.60;99.90
2651;DHT22;1335;48.180;16.342;2022-10-16T09:54:50;13.50;99.90
2651;DHT22;1335;48.180;16.342;2022-10-16T09:57:18;12.70;99.90
2651;DHT22;1335;48.180;16.342;2022-10-16T09:59:49;13.00;99.90
2651;DHT22;1335;48.180;16.342;2022-10-16T10:02:17;13.40;99.90
2651;DHT22;1335;48.180;16.342;2022-10-16T10:04:50;13.30;99.90
2651;DHT22;1335;48.180;16.342;2022-10-16T10:07:24;13.50;99.90
2651;DHT22;1335;48.180;16.342;2022-10-16T10:09:53;13.70;99.90
2651;DHT22;1335;48.180;16.342;2022-10-16T10:12:24;13.30;99.90
2651;DHT22;1335;48.180;16.342;2022-10-16T10:14:55;14.00;99.90
2651;DHT22;1335;48.180;16.342;2022-10-16T10:17:23;13.70;99.90
2651;DHT22;1335;48.180;16.342;2022-10-16T10:19:53;14.10;99.90
2651;DHT22;1335;48.180;16.342;2022-10-16T10:22:30;14.70;99.90
2651;DHT22;1335;48.180;16.342;2022-10-16T10:25:10;15.30;99.90
2651;DHT22;1335;48.180;16.342;2022-10-16T10:27:47;14.40;99.90
2651;DHT22;1335;48.180;16.342;2022-10-16T10:30:22;14.90;99.90
2651;DHT22;1335;48.180;16.342;2022-10-16T10:33:03;14.60;99.90
2651;DHT22;1335;48.180;16.342;2022-10-16T10:35:43;14.60;99.90
2651;DHT22;1335;48.180;16.342;2022-10-16T10:38:22;14.30;99.90
2651;DHT22;1335;48.180;16.342;2022-10-16T10:40:54;14.50;99.90
2651;DHT22;1335;48.180;16.342;2022-10-16T10:43:32;13.90;99.90
2651;DHT22;1335;48.180;16.342;2022-10-16T10:46:09;14.00;99.90
2651;DHT22;1335;48.180;16.342;2022-10-16T10:48:54;14.50;99.90
2651;DHT22;1335;48.180;16.342;2022-10-16T10:51:28;15.60;99.90
2651;DHT22;1335;48.180;16.342;2022-10-16T10:54:07;15.50;99.90
2651;DHT22;1335;48.180;16.342;2022-10-16T10:57:09;15.40;99.90
2651;DHT22;1335;48.180;16.342;2022-10-16T10:59:58;16.10;99.90
2651;DHT22;1335;48.180;16.342;2022-10-16T11:02:36;16.50;99.90
2651;DHT22;1335;48.180;16.342;2022-10-16T11:05:41;16.90;99.90
2651;DHT22;1335;48.180;16.342;2022-10-16T11:08:15;15.90;99.90
2651;DHT22;1335;48.180;16.342;2022-10-16T11:10:48;16.10;99.90
2651;DHT22;1335;48.180;16.342;2022-10-16T11:13:26;16.90;99.90
2651;DHT22;1335;48.180;16.342;2022-10-16T11:15:58;16.60;99.90
2651;DHT22;1335;48.180;16.342;2022-10-16T11:18:32;16.70;99.90
2651;DHT22;1335;48.180;16.342;2022-10-16T11:21:10;17.00;99.90
2651;DHT22;1335;48.180;16.342;2022-10-16T11:23:42;17.20;99.90
2651;DHT22;1335;48.180;16.342;2022-10-16T11:26:15;17.50;99.90
2651;DHT22;1335;48.180;16.342;2022-10-16T11:28:47;16.70;99.90
2651;DHT22;1335;48.180;16.342;2022-10-16T11:31:19;16.80;99.90
2651;DHT22;1335;48.180;16.342;2022-10-16T11:33:54;17.70;99.90
2651;DHT22;1335;48.180;16.342;2022-10-16T11:36:31;17.60;99.90
2651;DHT22;1335;48.180;16.342;2022-10-16T11:39:07;19.20;99.90
2651;DHT22;1335;48.180;16.342;2022-10-16T11:41:49;20.40;99.90
2651;DHT22;1335;48.180;16.342;2022-10-16T11:44:39;20.80;99.90
2651;DHT22;1335;48.180;16.342;2022-10-16T11:47:24;21.20;99.90
2651;DHT22;1335;48.180;16.342;2022-10-16T11:50:02;21.30;99.90
2651;DHT22;1335;48.180;16.342;2022-10-16T11:52:38;20.80;99.90
2651;DHT22;1335;48.180;16.342;2022-10-16T11:55:18;21.40;99.90
2651;DHT22;1335;48.180;16.342;2022-10-16T11:57:51;22.30;99.90
2651;DHT22;1335;48.180;16.342;2022-10-16T12:00:22;22.50;99.90
2651;DHT22;1335;48.180;16.342;2022-10-16T12:03:00;22.60;99.90
2651;DHT22;1335;48.180;16.342;2022-10-16T12:05:45;21.80;99.90
2651;DHT22;1335;48.180;16.342;2022-10-16T12:08:17;21.70;99.90
2651;DHT22;1335;48.180;16.342;2022-10-16T12:10:46;22.40;99.90
2651;DHT22;1335;48.180;16.342;2022-10-16T12:13:30;23.40;99.90
2651;DHT22;1335;48.180;16.342;2022-10-16T12:16:19;24.50;99.90
2651;DHT22;1335;48.180;16.342;2022-10-16T12:19:07;24.70;99.90
2651;DHT22;1335;48.180;16.342;2022-10-16T12:21:54;25.30;99.90
2651;DHT22;1335;48.180;16.342;2022-10-16T12:24:32;25.00;99.90
2651;DHT22;1335;48.180;16.342;2022-10-16T12:27:19;23.40;99.90
2651;DHT22;1335;48.180;16.342;2022-10-16T12:29:55;23.10;99.90
2651;DHT22;1335;48.180;16.342;2022-10-16T12:32:32;23.70;99.90
2651;DHT22;1335;48.180;16.342;2022-10-16T12:35:26;23.90;99.90
2651;DHT22;1335;48.180;16.342;2022-10-16T12:38:16;24.30;99.90
2651;DHT22;1335;48.180;16.342;2022-10-16T12:40:47;24.60;99.90
2651;DHT22;1335;48.180;16.342;2022-10-16T12:43:52;24.70;99.90
2651;DHT22;1335;48.180;16.342;2022-10-16T12:47:04;25.90;99.90
2651;DHT22;1335;48.180;16.342;2022-10-16T12:49:51;25.70;99.90
2651;DHT22;1335;48.180;16.342;2022-10-16T12:52:54;25.30;99.90
2651;DHT22;1335;48.180;16.342;2022-10-16T13:12:09;24.80;99.90
2651;DHT22;1335;48.180;16.342;2022-10-16T13:17:45;24.80;99.90
2651;DHT22;1335;48.180;16.342;2022-10-16T13:20:18;23.60;99.90
2651;DHT22;1335;48.180;16.342;2022-10-16T13:23:01;23.80;99.90
2651;DHT22;1335;48.180;16.342;2022-10-16T13:25:42;23.50;99.90
2651;DHT22;1335;48.180;16.342;2022-10-16T13:28:19;23.10;99.90
2651;DHT22;1335;48.180;16.342;2022-10-16T13:30:52;22.70;99.90
2651;DHT22;1335;48.180;16.342;2022-10-16T13:33:27;23.00;99.90
2651;DHT22;1335;48.180;16.342;2022-10-16T13:35:59;23.00;99.90
2651;DHT22;1335;48.180;16.342;2022-10-16T13:38:33;22.90;99.90
2651;DHT22;1335;48.180;16.342;2022-10-16T13:41:11;23.20;99.90
2651;DHT22;1335;48.180;16.342;2022-10-16T13:43:45;22.30;99.90
2651;DHT22;1335;48.180;16.342;2022-10-16T13:46:16;22.40;99.90
2651;DHT22;1335;48.180;16.342;2022-10-16T13:48:55;22.00;99.90
2651;DHT22;1335;48.180;16.342;2022-10-16T13:51:24;22.50;99.90
2651;DHT22;1335;48.180;16.342;2022-10-16T13:53:54;21.60;99.90
2651;DHT22;1335;48.180;16.342;2022-10-16T13:56:30;22.80;99.90
2651;DHT22;1335;48.180;16.342;2022-10-16T14:11:49;23.40;99.90
2651;DHT22;1335;48.180;16.342;2022-10-16T14:14:35;21.90;99.90
2651;DHT22;1335;48.180;16.342;2022-10-16T14:17:14;21.10;99.90
2651;DHT22;1335;48.180;16.342;2022-10-16T14:19:46;21.50;99.90
2651;DHT22;1335;48.180;16.342;2022-10-16T14:22:32;21.40;99.90
2651;DHT22;1335;48.180;16.342;2022-10-16T14:25:27;21.30;99.90
2651;DHT22;1335;48.180;16.342;2022-10-16T14:28:17;20.20;99.90
2651;DHT22;1335;48.180;16.342;2022-10-16T14:30:59;21.10;99.90
2651;DHT22;1335;48.180;16.342;2022-10-16T14:33:42;21.10;99.90
2651;DHT22;1335;48.180;16.342;2022-10-16T14:36:13;20.90;99.90
2651;DHT22;1335;48.180;16.342;2022-10-16T14:38:55;20.90;99.90
2651;DHT22;1335;48.180;16.342;2022-10-16T14:41:30;20.90;99.90
2651;DHT22;1335;48.180;16.342;2022-10-16T14:44:04;20.80;99.90
2651;DHT22;1335;48.180;16.342;2022-10-16T14:46:35;20.30;99.90
2651;DHT22;1335;48.180;16.342;2022-10-16T14:49:30;20.20;99.90
2651;DHT22;1335;48.180;16.342;2022-10-16T14:52:21;20.50;99.90
2651;DHT22;1335;48.180;16.342;2022-10-16T14:54:52;20.20;99.90
2651;DHT22;1335;48.180;16.342;2022-10-16T14:57:27;20.00;99.90
2651;DHT22;1335;48.180;16.342;2022-10-16T15:00:03;20.60;99.90
2651;DHT22;1335;48.180;16.342;2022-10-16T15:02:32;20.10;99.90
2651;DHT22;1335;48.180;16.342;2022-10-16T15:05:14;20.20;99.90
2651;DHT22;1335;48.180;16.342;2022-10-16T15:07:43;20.40;99.90
2651;DHT22;1335;48.180;16.342;2022-10-16T15:10:22;20.30;99.90
2651;DHT22;1335;48.180;16.342;2022-10-16T15:12:50;20.20;99.90
2651;DHT22;1335;48.180;16.342;2022-10-16T15:15:33;19.40;99.90
2651;DHT22;1335;48.180;16.342;2022-10-16T15:18:05;19.50;99.90
2651;DHT22;1335;48.180;16.342;2022-10-16T15:20:53;19.50;99.90
2651;DHT22;1335;48.180;16.342;2022-10-16T15:23:28;19.80;99.90
2651;DHT22;1335;48.180;16.342;2022-10-16T15:29:24;20.20;99.90
2651;DHT22;1335;48.180;16.342;2022-10-16T15:32:19;19.10;99.90
2651;DHT22;1335;48.180;16.342;2022-10-16T15:34:50;19.60;99.90
2651;DHT22;1335;48.180;16.342;2022-10-16T15:37:20;19.20;99.90
2651;DHT22;1335;48.180;16.342;2022-10-16T15:40:25;18.90;99.90
2651;DHT22;1335;48.180;16.342;2022-10-16T15:43:28;19.20;99.90
2651;DHT22;1335;48.180;16.342;2022-10-16T15:46:04;20.00;99.90
2651;DHT22;1335;48.180;16.342;2022-10-16T15:51:55;18.80;99.90
2651;DHT22;1335;48.180;16.342;2022-10-16T15:54:23;18.80;99.90
2651;DHT22;1335;48.180;16.342;2022-10-16T15:56:51;18.80;99.90
2651;DHT22;1335;48.180;16.342;2022-10-16T15:59:19;18.30;99.90
2651;DHT22;1335;48.180;16.342;2022-10-16T16:01:46;18.80;99.90
2651;DHT22;1335;48.180;16.342;2022-10-16T16:04:17;18.70;99.90
2651;DHT22;1335;48.180;16.342;2022-10-16T16:06:45;18.60;99.90
2651;DHT22;1335;48.180;16.342;2022-10-16T16:09:43;18.50;99.90
2651;DHT22;1335;48.180;16.342;2022-10-16T16:12:21;18.30;99.90
2651;DHT22;1335;48.180;16.342;2022-10-16T16:14:49;17.80;99.90
2651;DHT22;1335;48.180;16.342;2022-10-16T16:17:19;18.50;99.90
2651;DHT22;1335;48.180;16.342;2022-10-16T16:19:46;18.30;99.90
2651;DHT22;1335;48.180;16.342;2022-10-16T16:22:14;18.00;99.90
2651;DHT22;1335;48.180;16.342;2022-10-16T16:24:44;18.50;99.90
2651;DHT22;1335;48.180;16.342;2022-10-16T16:27:11;18.40;99.90
2651;DHT22;1335;48.180;16.342;2022-10-16T16:29:40;18.20;99.90
2651;DHT22;1335;48.180;16.342;2022-10-16T16:32:09;18.40;99.90
2651;DHT22;1335;48.180;16.342;2022-10-16T16:34:37;17.70;99.90
2651;DHT22;1335;48.180;16.342;2022-10-16T16:37:05;18.70;99.90
2651;DHT22;1335;48.180;16.342;2022-10-16T16:39:33;18.40;99.90
2651;DHT22;1335;48.180;16.342;2022-10-16T16:42:03;18.90;99.90
2651;DHT22;1335;48.180;16.342;2022-10-16T16:44:47;17.90;99.90
2651;DHT22;1335;48.180;16.342;2022-10-16T16:47:16;18.00;99.90
2651;DHT22;1335;48.180;16.342;2022-10-16T16:49:44;18.10;99.90
2651;DHT22;1335;48.180;16.342;2022-10-16T16:52:14;18.00;99.90
2651;DHT22;1335;48.180;16.342;2022-10-16T16:54:42;18.10;99.90
2651;DHT22;1335;48.180;16.342;2022-10-16T16:57:19;17.80;99.90
2651;DHT22;1335;48.180;16.342;2022-10-16T16:59:51;19.00;99.90